Latest Weather Observations for Dum In Mirrie

IDD60901

Issued at 3:21 pm CST Sunday 20 August 2017 (issued every 10 minutes, with the page automatically refreshed every 10 minutes)

About weather observations | Map of Darwin area stations | Latest observations for Darwin area | Other Formats
Station Details ID: 014277 Name: DUM IN MIRRIE AIRSTRIP Lat: -12.63 Lon: 130.37 Height: 3.5 m
Data from the previous 72 hours. | See also: Recent months at Dum In Mirrie
Date/Time
CST
Temp
°C
App
Temp
°C
Dew
Point
°C
Rel
Hum
%
Delta-T
°C
Wind Press
QNH
hPa
Press
MSL
hPa
Rain since
9am
mm
Dir  Spd
km/h
Gust
km/h
Spd
kts
Gust
kts
20/03:00pm 30.0 32.0 22.2 63 5.3 NNW 15 26 8 14 1010.9 1010.9 0.0
20/02:30pm 30.1 32.2 22.5 63 5.2 N 15 26 8 14 1011.2 1011.2 0.0
20/02:00pm 30.6 33.4 23.0 64 5.2 NNW 13 22 7 12 1011.7 1011.7 0.0
20/01:30pm 29.7 32.1 22.2 64 5.1 NNW 13 22 7 12 1012.2 1012.2 0.0
20/01:00pm 31.7 34.1 21.5 54 6.9 NE 11 19 6 10 1012.7 1012.7 0.0
20/12:30pm 31.8 34.1 20.7 51 7.4 E 9 19 5 10 1013.2 1013.2 0.0
20/12:00pm 30.6 32.8 20.5 54 6.7 E 9 17 5 9 1013.6 1013.6 0.0
20/11:30am 30.2 31.4 20.7 56 6.3 E 15 24 8 13 1014.2 1014.2 0.0
20/11:00am 29.6 32.0 21.5 61 5.4 E 11 15 6 8 1014.5 1014.5 0.0
20/10:30am 29.1 32.0 21.8 64 4.9 E 9 13 5 7 1014.7 1014.7 0.0
20/10:00am 28.5 32.4 23.0 72 3.8 E 7 13 4 7 1014.8 1014.8 0.0
20/09:30am 27.0 30.6 22.4 76 3.1 ESE 7 11 4 6 1014.6 1014.6 0.0
20/09:00am 26.9 31.6 24.0 84 2.0 SE 6 7 3 4 1014.4 1014.4 0.0
20/08:30am 25.7 31.0 24.3 92 1.0 SSE 4 7 2 4 1014.2 1014.2 0.0
20/08:00am 24.5 29.8 24.3 99 0.1 SE 4 7 2 4 1014.0 1014.0 0.0
20/07:30am 23.4 28.0 23.2 99 0.1 SE 4 6 2 3 1013.7 1013.7 0.0
20/07:00am 21.7 25.7 21.4 98 0.2 ESE 2 2 1 1 1013.1 1013.1 0.0
20/06:30am 21.9 25.7 21.6 98 0.2 ESE 4 6 2 3 1012.7 1012.7 0.0
20/06:00am 21.6 25.2 21.3 98 0.2 E 4 4 2 2 1012.5 1012.5 0.0
20/05:30am 21.2 24.5 20.7 97 0.3 E 4 6 2 3 1012.3 1012.3 0.0
20/05:00am 21.2 25.2 20.5 96 0.5 CALM 0 0 0 0 1012.2 1012.2 0.0
20/04:30am 21.8 25.8 21.3 97 0.3 E 2 4 1 2 1012.3 1012.3 0.0
20/04:00am 22.0 25.6 21.3 96 0.5 ESE 4 6 2 3 1012.2 1012.2 0.0
20/03:30am 22.4 26.2 21.6 95 0.5 ESE 4 4 2 2 1012.3 1012.3 0.0
20/03:00am 22.7 27.0 21.9 95 0.5 ESE 2 4 1 2 1012.4 1012.4 0.0
20/02:30am 22.9 27.3 22.1 95 0.5 ESE 2 6 1 3 1012.5 1012.5 0.0
20/02:00am 23.1 27.3 22.4 96 0.5 ESE 4 6 2 3 1012.7 1012.7 0.0
20/01:30am 23.1 27.9 22.1 94 0.7 CALM 0 0 0 0 1012.9 1012.9 0.0
20/01:00am 22.7 27.1 21.3 92 0.9 CALM 0 0 0 0 1013.0 1013.0 0.0
20/12:30am 23.3 27.8 21.6 90 1.1 CALM 0 0 0 0 1013.0 1013.0 0.0
20/12:00am 23.5 27.9 21.4 88 1.4 CALM 0 0 0 0 1013.1 1013.1 0.0
 
Date/Time
CST
Temp
°C
App
Temp
°C
Dew
Point
°C
Rel
Hum
%
Delta-T
°C
Wind Press
QNH
hPa
Press
MSL
hPa
Rain since
9am
mm
Dir  Spd
km/h
Gust
km/h
Spd
kts
Gust
kts
19/11:30pm 24.6 29.4 22.1 86 1.7 CALM 0 2 0 1 1013.1 1013.1 0.0
19/11:00pm 25.4 30.5 22.7 85 1.8 CALM 0 0 0 0 1013.1 1013.1 0.0
19/10:30pm 26.0 30.9 23.1 84 2.0 SW 2 7 1 4 1013.0 1013.0 0.0
19/10:00pm 26.3 30.6 22.6 80 2.5 SW 4 9 2 5 1012.8 1012.8 0.0
19/09:30pm 26.4 30.9 22.9 81 2.4 SSW 4 7 2 4 1012.8 1012.8 0.0
19/09:00pm 26.4 30.5 22.3 78 2.8 SSW 4 7 2 4 1012.6 1012.6 0.0
19/08:30pm 26.8 31.4 22.4 77 3.0 WSW 2 9 1 5 1012.4 1012.4 0.0
19/08:00pm 26.9 30.5 22.1 75 3.2 W 6 11 3 6 1011.9 1011.9 0.0
19/07:30pm 26.8 30.2 21.6 73 3.5 W 6 7 3 4 1011.7 1011.7 0.0
19/07:00pm 27.0 30.0 21.3 71 3.8 WNW 7 13 4 7 1011.3 1011.3 0.0
19/06:30pm 27.4 30.8 21.7 71 3.8 WNW 6 11 3 6 1011.2 1011.2 0.0
19/06:00pm 28.5 31.9 22.0 68 4.4 WNW 7 13 4 7 1010.9 1010.9 0.0
19/05:30pm 29.2 32.9 22.2 66 4.7 WNW 6 11 3 6 1010.7 1010.7 0.0
19/05:00pm 29.1 31.9 21.6 64 5.0 NW 9 13 5 7 1010.6 1010.6 0.0
19/04:30pm 29.6 32.8 22.3 65 5.0 WNW 9 17 5 9 1010.5 1010.5 0.0
19/04:00pm 30.0 33.2 22.4 63 5.2 WNW 9 17 5 9 1010.6 1010.6 0.0
19/03:30pm 29.8 32.7 22.5 65 5.0 WNW 11 19 6 10 1010.8 1010.8 0.0
19/03:00pm 30.2 33.2 22.6 63 5.2 WNW 11 19 6 10 1011.0 1011.0 0.0
19/02:30pm 30.3 33.6 23.2 65 4.9 WNW 11 17 6 9 1011.4 1011.4 0.0
19/02:00pm 29.8 32.6 22.3 64 5.1 NW 11 19 6 10 1011.8 1011.8 0.0
19/01:30pm 29.7 32.6 22.4 65 5.0 NNW 11 20 6 11 1012.3 1012.3 0.0
19/01:00pm 30.2 33.3 22.1 62 5.5 WNW 9 15 5 8 1012.9 1012.9 0.0
19/12:30pm 30.0 34.5 22.9 65 4.9 WSW 4 11 2 6 1013.5 1013.5 0.0
19/12:00pm 29.2 32.9 22.2 66 4.7 WSW 6 11 3 6 1014.1 1014.1 0.0
19/11:30am 29.2 32.4 22.4 66 4.6 WSW 9 13 5 7 1014.6 1014.6 0.0
19/11:00am 30.1 34.6 22.3 63 5.3 SSE 2 6 1 3 1014.9 1014.9 0.0
19/10:30am 29.0 32.4 21.7 64 4.9 SSE 6 9 3 5 1015.2 1015.2 0.0
19/10:00am 28.5 31.8 21.5 66 4.7 SE 6 9 3 5 1015.2 1015.2 0.0
19/09:30am 27.2 30.6 21.7 72 3.7 SE 6 9 3 5 1014.9 1014.9 0.0
19/09:00am 26.6 30.6 22.0 76 3.1 SE 4 7 2 4 1014.5 1014.5 0.0
19/08:30am 25.5 29.2 22.2 82 2.2 SE 6 11 3 6 1014.4 1014.4 0.0
19/08:00am 24.4 28.6 22.5 89 1.3 SE 4 7 2 4 1014.2 1014.2 0.0
19/07:30am 22.4 26.8 22.1 98 0.2 SE 2 4 1 2 1013.9 1013.9 0.0
19/07:00am 21.5 25.2 20.8 96 0.5 SE 2 6 1 3 1013.8 1013.8 0.0
19/06:30am 21.9 25.5 21.2 96 0.5 SE 4 6 2 3 1013.4 1013.4 0.0
19/06:00am 22.3 26.1 21.6 96 0.5 ESE 4 6 2 3 1013.1 1013.1 0.0
19/05:30am 22.7 26.7 22.0 96 0.5 SE 4 6 2 3 1012.8 1012.8 0.0
19/05:00am 23.1 26.9 22.4 96 0.5 ESE 6 7 3 4 1012.7 1012.7 0.0
19/04:30am 23.3 27.2 22.5 95 0.5 E 6 9 3 5 1012.7 1012.7 0.0
19/04:00am 22.3 25.8 21.8 97 0.3 ESE 6 7 3 4 1012.7 1012.7 0.0
19/03:30am 20.8 23.5 19.5 92 0.8 E 4 6 2 3 1012.7 1012.7 0.0
19/03:00am 21.4 24.4 20.0 92 0.9 E 4 6 2 3 1012.8 1012.8 0.0
19/02:30am 21.6 25.4 20.1 91 1.0 CALM 0 0 0 0 1012.9 1012.9 0.0
19/02:00am 22.1 25.3 20.6 91 1.0 SE 4 4 2 2 1013.3 1013.3 0.0
19/01:30am 21.9 25.0 19.6 87 1.5 ESE 2 2 1 1 1013.3 1013.3 0.0
19/01:00am 22.8 26.0 20.5 87 1.5 ESE 4 6 2 3 1013.5 1013.5 0.0
19/12:30am 23.1 26.4 20.8 87 1.5 ESE 4 6 2 3 1013.5 1013.5 0.0
19/12:00am 23.7 27.5 21.6 88 1.4 ESE 4 6 2 3 1013.6 1013.6 0.0
 
Date/Time
CST
Temp
°C
App
Temp
°C
Dew
Point
°C
Rel
Hum
%
Delta-T
°C
Wind Press
QNH
hPa
Press
MSL
hPa
Rain since
9am
mm
Dir  Spd
km/h
Gust
km/h
Spd
kts
Gust
kts
18/11:30pm 23.8 27.7 21.9 89 1.3 SE 4 6 2 3 1013.5 1013.5 0.0
18/11:00pm 23.8 27.5 21.5 87 1.5 SE 4 4 2 2 1013.5 1013.5 0.0
18/10:30pm 23.8 27.5 21.5 87 1.5 SSE 4 6 2 3 1013.5 1013.5 0.0
18/10:00pm 23.1 26.5 20.2 84 1.9 E 2 4 1 2 1013.3 1013.3 0.0
18/09:30pm 23.1 26.5 20.1 83 1.9 ENE 2 2 1 1 1013.2 1013.2 0.0
18/09:00pm 23.8 27.5 19.9 79 2.5 CALM 0 0 0 0 1012.8 1012.8 0.0
18/08:30pm 25.2 28.6 20.2 74 3.3 NE 2 4 1 2 1012.5 1012.5 0.0
18/08:00pm 26.1 29.5 20.9 73 3.4 NNE 4 6 2 3 1011.9 1011.9 0.0
18/07:30pm 26.4 29.4 20.9 72 3.6 NNE 6 7 3 4 1011.6 1011.6 0.0
18/07:00pm 26.8 29.9 21.1 71 3.8 NNE 6 11 3 6 1011.2 1011.2 0.0
18/06:30pm 27.2 30.4 21.2 69 4.0 N 6 11 3 6 1010.8 1010.8 0.0
18/06:00pm 27.9 31.2 21.9 70 4.0 N 7 13 4 7 1010.6 1010.6 0.0
18/05:30pm 28.7 32.1 22.0 67 4.5 N 7 15 4 8 1010.3 1010.3 0.0
18/05:00pm 28.7 31.4 22.2 68 4.4 N 11 19 6 10 1010.0 1010.0 0.0
18/04:30pm 29.4 32.4 22.6 67 4.6 NNW 11 20 6 11 1009.9 1009.9 0.0
18/04:00pm 29.8 33.2 23.3 68 4.5 NNW 11 19 6 10 1009.9 1009.9 0.0
18/03:30pm 29.8 32.6 23.0 67 4.7 NNW 13 19 7 10 1009.8 1009.8 0.0
18/03:00pm 29.7 32.4 22.9 67 4.7 N 13 24 7 13 1010.1 1010.1 0.0
18/02:30pm 30.2 32.9 22.9 65 5.0 NNW 13 20 7 11 1010.4 1010.4 0.0
18/02:00pm 30.3 32.9 21.9 60 5.7 N 11 24 6 13 1010.6 1010.6 0.0
18/01:30pm 30.6 33.2 22.7 62 5.4 NNE 13 22 7 12 1010.9 1010.9 0.0
18/01:00pm 32.6 34.8 20.5 49 8.1 NE 9 17 5 9 1011.5 1011.5 0.0
18/12:30pm 32.0 34.3 20.6 51 7.6 E 9 19 5 10 1012.0 1012.0 0.0
18/12:00pm 31.5 34.0 21.1 54 7.0 NE 9 17 5 9 1012.6 1012.6 0.0
18/11:30am 31.0 33.8 20.9 55 6.7 ENE 7 15 4 8 1013.2 1013.2 0.0
18/11:00am 29.8 32.4 21.2 60 5.7 ENE 9 15 5 8 1013.7 1013.7 0.0
18/10:30am 29.6 32.3 21.3 61 5.5 ENE 9 15 5 8 1013.9 1013.9 0.0
18/10:00am 29.2 32.2 21.9 64 4.9 ENE 9 15 5 8 1013.8 1013.8 0.0
18/09:30am 29.0 32.1 22.2 66 4.6 ENE 9 15 5 8 1013.6 1013.6 0.0
18/09:00am 27.9 31.2 22.6 73 3.6 E 9 19 5 10 1013.6 1013.6 0.0
18/08:30am 27.5 31.7 23.1 77 3.0 E 6 11 3 6 1013.4 1013.4 0.0
18/08:00am 26.4 30.4 23.1 82 2.2 E 7 11 4 6 1013.2 1013.2 0.0
18/07:30am 25.0 29.1 22.9 88 1.4 E 6 9 3 5 1012.9 1012.9 0.0
18/07:00am 24.9 28.9 22.8 88 1.4 E 6 9 3 5 1012.5 1012.5 0.0
18/06:30am 25.3 29.2 23.0 87 1.6 ESE 7 13 4 7 1012.2 1012.2 0.0
18/06:00am 25.2 29.1 22.9 87 1.6 E 7 9 4 5 1011.8 1011.8 0.0
18/05:30am 25.1 29.2 23.0 88 1.4 E 6 6 3 3 1011.3 1011.3 0.0
18/05:00am 25.2 30.3 23.3 89 1.3 E 2 4 1 2 1010.8 1010.8 0.0
18/04:30am 25.1 30.1 23.2 89 1.3 ENE 2 4 1 2 1010.6 1010.6 0.0
18/04:00am 24.9 30.3 23.3 91 1.1 CALM 0 0 0 0 1010.6 1010.6 0.0
18/03:30am 24.4 29.2 22.1 87 1.5 CALM 0 0 0 0 1010.5 1010.5 0.0
18/03:00am 25.1 29.8 22.0 83 2.1 CALM 0 0 0 0 1010.7 1010.7 0.0
18/02:30am 26.4 31.5 22.7 80 2.5 CALM 0 2 0 1 1010.8 1010.8 0.0
18/02:00am 26.6 31.2 23.1 81 2.4 W 4 6 2 3 1010.9 1010.9 0.0
18/01:30am 26.5 31.4 23.0 81 2.4 W 2 4 1 2 1011.2 1011.2 0.0
18/01:00am 26.6 30.9 22.7 79 2.6 WNW 4 7 2 4 1011.3 1011.3 0.0
18/12:30am 26.7 31.2 23.0 80 2.5 W 4 7 2 4 1011.5 1011.5 0.0
18/12:00am 26.6 30.7 22.9 80 2.5 WNW 6 9 3 5 1011.4 1011.4 0.0
 
Date/Time
CST
Temp
°C
App
Temp
°C
Dew
Point
°C
Rel
Hum
%
Delta-T
°C
Wind Press
QNH
hPa
Press
MSL
hPa
Rain since
9am
mm
Dir  Spd
km/h
Gust
km/h
Spd
kts
Gust
kts
17/11:30pm 26.5 30.7 23.2 82 2.2 WNW 6 9 3 5 1011.4 1011.4 0.0
17/11:00pm 26.4 31.0 23.1 82 2.2 WNW 4 7 2 4 1011.5 1011.5 0.0
17/10:30pm 26.3 30.8 23.0 82 2.2 WNW 4 6 2 3 1011.6 1011.6 0.0
17/10:00pm 26.3 31.2 23.0 82 2.2 W 2 7 1 4 1011.4 1011.4 0.0
17/09:30pm 26.4 30.9 22.9 81 2.4 W 4 9 2 5 1011.2 1011.2 0.0
17/09:00pm 26.3 30.4 22.2 78 2.8 W 4 7 2 4 1010.8 1010.8 0.0
17/08:30pm 25.9 30.2 22.0 79 2.6 W 2 6 1 3 1010.3 1010.3 0.0
17/08:00pm 25.9 29.8 21.1 75 3.2 WSW 2 4 1 2 1010.0 1010.0 0.0
17/07:30pm 26.4 30.2 20.9 72 3.6 WNW 2 6 1 3 1009.7 1009.7 0.0
17/07:00pm 26.9 30.2 20.7 69 4.1 NW 4 6 2 3 1009.5 1009.5 0.0
17/06:30pm 27.6 30.9 20.7 66 4.6 NW 4 7 2 4 1009.2 1009.2 0.0
17/06:00pm 28.7 31.9 21.2 64 5.0 NW 6 11 3 6 1009.0 1009.0 0.0
17/05:30pm 29.3 32.3 21.3 62 5.4 NW 7 13 4 7 1008.8 1008.8 0.0
17/05:00pm 29.3 32.0 21.3 62 5.3 NW 9 15 5 8 1008.7 1008.7 0.0
17/04:30pm 29.6 32.4 21.5 61 5.4 WNW 9 15 5 8 1008.6 1008.6 0.0
17/04:00pm 29.5 32.4 21.7 63 5.2 NW 9 15 5 8 1008.8 1008.8 0.0
17/03:30pm 30.5 33.4 22.4 62 5.5 NW 11 19 6 10 1008.9 1008.9 0.0

Latest Capital City Observations: Canberra | Sydney | Melbourne | Brisbane | Adelaide | Perth | Hobart | Darwin

Other Formats:

Comma delimited format used in spreadsheet applications
http://www.bom.gov.au/fwo/IDD60901/IDD60901.94116.axf

JavaScript Object Notation format (JSON) in row-major order
http://www.bom.gov.au/fwo/IDD60901/IDD60901.94116.json